sensor_id;sensor_type;location;lat;lon;timestamp;P1;durP1;ratioP1;P2;durP2;ratioP2
21671;SDS011;10997;52.242;8.168;2023-11-22T00:03:04;18.73;;;10.27;;
21671;SDS011;10997;52.242;8.168;2023-11-22T00:08:04;17.45;;;11.23;;
21671;SDS011;10997;52.242;8.168;2023-11-22T00:13:05;14.55;;;10.38;;
21671;SDS011;10997;52.242;8.168;2023-11-22T00:18:05;17.00;;;10.13;;
21671;SDS011;10997;52.242;8.168;2023-11-22T00:23:06;18.58;;;10.88;;
21671;SDS011;10997;52.242;8.168;2023-11-22T00:28:07;15.48;;;9.93;;
21671;SDS011;10997;52.242;8.168;2023-11-22T00:33:07;16.58;;;9.98;;
21671;SDS011;10997;52.242;8.168;2023-11-22T00:38:09;14.98;;;9.60;;
21671;SDS011;10997;52.242;8.168;2023-11-22T00:43:09;15.30;;;9.43;;
21671;SDS011;10997;52.242;8.168;2023-11-22T00:48:10;15.93;;;9.23;;
21671;SDS011;10997;52.242;8.168;2023-11-22T00:53:11;17.40;;;10.65;;
21671;SDS011;10997;52.242;8.168;2023-11-22T00:58:12;17.33;;;9.63;;
21671;SDS011;10997;52.242;8.168;2023-11-22T01:03:12;19.23;;;9.77;;
21671;SDS011;10997;52.242;8.168;2023-11-22T01:08:13;16.58;;;9.63;;
21671;SDS011;10997;52.242;8.168;2023-11-22T01:13:14;20.70;;;10.50;;
21671;SDS011;10997;52.242;8.168;2023-11-22T01:18:14;15.10;;;9.25;;
21671;SDS011;10997;52.242;8.168;2023-11-22T01:23:15;13.65;;;10.00;;
21671;SDS011;10997;52.242;8.168;2023-11-22T01:28:16;16.13;;;9.85;;
21671;SDS011;10997;52.242;8.168;2023-11-22T01:33:22;14.50;;;9.98;;
21671;SDS011;10997;52.242;8.168;2023-11-22T01:38:23;17.63;;;10.10;;
21671;SDS011;10997;52.242;8.168;2023-11-22T01:43:26;15.13;;;9.68;;
21671;SDS011;10997;52.242;8.168;2023-11-22T01:48:27;17.90;;;10.32;;
21671;SDS011;10997;52.242;8.168;2023-11-22T01:53:28;13.23;;;9.00;;
21671;SDS011;10997;52.242;8.168;2023-11-22T01:58:29;15.18;;;9.27;;
21671;SDS011;10997;52.242;8.168;2023-11-22T02:03:30;16.02;;;9.77;;
21671;SDS011;10997;52.242;8.168;2023-11-22T02:08:31;14.07;;;9.77;;
21671;SDS011;10997;52.242;8.168;2023-11-22T02:13:32;15.70;;;8.95;;
21671;SDS011;10997;52.242;8.168;2023-11-22T02:18:32;15.90;;;10.25;;
21671;SDS011;10997;52.242;8.168;2023-11-22T02:23:33;14.70;;;9.70;;
21671;SDS011;10997;52.242;8.168;2023-11-22T02:28:34;15.63;;;9.63;;
21671;SDS011;10997;52.242;8.168;2023-11-22T02:33:35;14.35;;;9.43;;
21671;SDS011;10997;52.242;8.168;2023-11-22T02:38:35;17.98;;;9.60;;
21671;SDS011;10997;52.242;8.168;2023-11-22T02:43:36;13.70;;;8.82;;
21671;SDS011;10997;52.242;8.168;2023-11-22T02:48:36;14.32;;;8.65;;
21671;SDS011;10997;52.242;8.168;2023-11-22T02:53:37;15.25;;;8.70;;
21671;SDS011;10997;52.242;8.168;2023-11-22T02:58:38;12.55;;;8.60;;
21671;SDS011;10997;52.242;8.168;2023-11-22T03:03:38;16.73;;;9.43;;
21671;SDS011;10997;52.242;8.168;2023-11-22T03:08:40;14.85;;;9.52;;
21671;SDS011;10997;52.242;8.168;2023-11-22T03:13:40;16.17;;;9.90;;
21671;SDS011;10997;52.242;8.168;2023-11-22T03:18:41;17.50;;;9.32;;
21671;SDS011;10997;52.242;8.168;2023-11-22T03:23:41;17.55;;;10.73;;
21671;SDS011;10997;52.242;8.168;2023-11-22T03:28:42;15.55;;;9.93;;
21671;SDS011;10997;52.242;8.168;2023-11-22T03:33:43;18.63;;;9.98;;
21671;SDS011;10997;52.242;8.168;2023-11-22T03:38:45;16.33;;;10.35;;
21671;SDS011;10997;52.242;8.168;2023-11-22T03:43:46;17.73;;;9.88;;
21671;SDS011;10997;52.242;8.168;2023-11-22T03:48:47;15.95;;;10.15;;
21671;SDS011;10997;52.242;8.168;2023-11-22T03:53:47;16.92;;;10.35;;
21671;SDS011;10997;52.242;8.168;2023-11-22T03:58:48;15.23;;;10.05;;
21671;SDS011;10997;52.242;8.168;2023-11-22T04:03:48;17.33;;;10.05;;
21671;SDS011;10997;52.242;8.168;2023-11-22T04:08:49;15.70;;;9.70;;
21671;SDS011;10997;52.242;8.168;2023-11-22T04:13:50;16.73;;;9.75;;
21671;SDS011;10997;52.242;8.168;2023-11-22T04:18:50;17.23;;;10.32;;
21671;SDS011;10997;52.242;8.168;2023-11-22T04:23:51;17.02;;;10.68;;
21671;SDS011;10997;52.242;8.168;2023-11-22T04:28:51;16.15;;;10.63;;
21671;SDS011;10997;52.242;8.168;2023-11-22T04:33:52;17.45;;;10.80;;
21671;SDS011;10997;52.242;8.168;2023-11-22T04:38:54;16.42;;;10.23;;
21671;SDS011;10997;52.242;8.168;2023-11-22T04:43:54;14.95;;;9.77;;
21671;SDS011;10997;52.242;8.168;2023-11-22T04:48:55;16.85;;;10.35;;
21671;SDS011;10997;52.242;8.168;2023-11-22T04:53:57;17.38;;;10.50;;
21671;SDS011;10997;52.242;8.168;2023-11-22T04:58:57;17.83;;;10.88;;
21671;SDS011;10997;52.242;8.168;2023-11-22T05:03:58;16.20;;;9.93;;
21671;SDS011;10997;52.242;8.168;2023-11-22T05:08:59;16.70;;;10.23;;
21671;SDS011;10997;52.242;8.168;2023-11-22T05:14:00;15.38;;;10.02;;
21671;SDS011;10997;52.242;8.168;2023-11-22T05:19:00;15.77;;;9.95;;
21671;SDS011;10997;52.242;8.168;2023-11-22T05:24:01;17.15;;;9.43;;
21671;SDS011;10997;52.242;8.168;2023-11-22T05:29:01;18.00;;;10.27;;
21671;SDS011;10997;52.242;8.168;2023-11-22T05:34:04;16.90;;;10.38;;
21671;SDS011;10997;52.242;8.168;2023-11-22T05:39:05;16.55;;;10.50;;
21671;SDS011;10997;52.242;8.168;2023-11-22T05:44:06;18.98;;;9.90;;
21671;SDS011;10997;52.242;8.168;2023-11-22T05:49:08;16.95;;;10.30;;
21671;SDS011;10997;52.242;8.168;2023-11-22T05:54:10;17.67;;;10.23;;
21671;SDS011;10997;52.242;8.168;2023-11-22T05:59:12;17.63;;;10.20;;
21671;SDS011;10997;52.242;8.168;2023-11-22T06:04:13;17.13;;;9.93;;
21671;SDS011;10997;52.242;8.168;2023-11-22T06:09:13;17.08;;;10.07;;
21671;SDS011;10997;52.242;8.168;2023-11-22T06:14:14;16.67;;;9.40;;
21671;SDS011;10997;52.242;8.168;2023-11-22T06:19:15;18.33;;;9.68;;
21671;SDS011;10997;52.242;8.168;2023-11-22T06:24:15;18.08;;;10.32;;
21671;SDS011;10997;52.242;8.168;2023-11-22T06:29:16;18.55;;;10.85;;
21671;SDS011;10997;52.242;8.168;2023-11-22T06:34:16;18.88;;;10.32;;
21671;SDS011;10997;52.242;8.168;2023-11-22T06:39:17;20.17;;;11.15;;
21671;SDS011;10997;52.242;8.168;2023-11-22T06:44:18;18.70;;;10.68;;
21671;SDS011;10997;52.242;8.168;2023-11-22T06:49:18;22.48;;;11.80;;
21671;SDS011;10997;52.242;8.168;2023-11-22T06:54:19;21.88;;;11.70;;
21671;SDS011;10997;52.242;8.168;2023-11-22T06:59:20;24.08;;;12.68;;
21671;SDS011;10997;52.242;8.168;2023-11-22T07:04:21;19.45;;;11.70;;
21671;SDS011;10997;52.242;8.168;2023-11-22T07:09:22;21.00;;;11.88;;
21671;SDS011;10997;52.242;8.168;2023-11-22T07:14:23;21.00;;;13.02;;
21671;SDS011;10997;52.242;8.168;2023-11-22T07:19:25;15.10;;;10.10;;
21671;SDS011;10997;52.242;8.168;2023-11-22T07:24:25;14.77;;;9.73;;
21671;SDS011;10997;52.242;8.168;2023-11-22T07:29:26;14.85;;;9.75;;
21671;SDS011;10997;52.242;8.168;2023-11-22T07:34:29;20.85;;;10.30;;
21671;SDS011;10997;52.242;8.168;2023-11-22T07:39:29;17.02;;;10.70;;
21671;SDS011;10997;52.242;8.168;2023-11-22T07:44:30;20.00;;;12.52;;
21671;SDS011;10997;52.242;8.168;2023-11-22T07:49:35;18.42;;;11.55;;
21671;SDS011;10997;52.242;8.168;2023-11-22T07:54:39;19.98;;;11.15;;
21671;SDS011;10997;52.242;8.168;2023-11-22T07:59:40;21.50;;;11.50;;
21671;SDS011;10997;52.242;8.168;2023-11-22T08:04:42;21.02;;;12.23;;
21671;SDS011;10997;52.242;8.168;2023-11-22T08:09:45;23.85;;;12.63;;
21671;SDS011;10997;52.242;8.168;2023-11-22T08:14:45;19.58;;;12.07;;
21671;SDS011;10997;52.242;8.168;2023-11-22T08:19:46;22.10;;;13.07;;
21671;SDS011;10997;52.242;8.168;2023-11-22T08:24:48;21.35;;;12.63;;
21671;SDS011;10997;52.242;8.168;2023-11-22T08:29:48;26.00;;;14.48;;
21671;SDS011;10997;52.242;8.168;2023-11-22T08:34:50;25.23;;;15.15;;
21671;SDS011;10997;52.242;8.168;2023-11-22T08:39:51;24.88;;;14.55;;
21671;SDS011;10997;52.242;8.168;2023-11-22T08:44:52;24.15;;;14.68;;
21671;SDS011;10997;52.242;8.168;2023-11-22T08:49:53;22.48;;;13.30;;
21671;SDS011;10997;52.242;8.168;2023-11-22T08:54:54;23.27;;;14.05;;
21671;SDS011;10997;52.242;8.168;2023-11-22T08:59:55;29.67;;;17.90;;
21671;SDS011;10997;52.242;8.168;2023-11-22T09:04:56;21.58;;;14.50;;
21671;SDS011;10997;52.242;8.168;2023-11-22T09:09:56;21.80;;;12.80;;
21671;SDS011;10997;52.242;8.168;2023-11-22T09:14:58;23.90;;;14.95;;
21671;SDS011;10997;52.242;8.168;2023-11-22T09:19:58;23.80;;;15.13;;
21671;SDS011;10997;52.242;8.168;2023-11-22T09:24:59;22.48;;;14.20;;
21671;SDS011;10997;52.242;8.168;2023-11-22T09:30:00;20.40;;;12.77;;
21671;SDS011;10997;52.242;8.168;2023-11-22T09:35:00;21.55;;;14.02;;
21671;SDS011;10997;52.242;8.168;2023-11-22T09:40:01;20.95;;;11.55;;
21671;SDS011;10997;52.242;8.168;2023-11-22T09:45:02;22.55;;;12.90;;
21671;SDS011;10997;52.242;8.168;2023-11-22T09:50:03;20.55;;;12.95;;
21671;SDS011;10997;52.242;8.168;2023-11-22T09:55:10;23.80;;;13.48;;
21671;SDS011;10997;52.242;8.168;2023-11-22T10:00:11;19.45;;;11.57;;
21671;SDS011;10997;52.242;8.168;2023-11-22T10:05:16;17.87;;;11.60;;
21671;SDS011;10997;52.242;8.168;2023-11-22T10:10:17;19.48;;;12.05;;
21671;SDS011;10997;52.242;8.168;2023-11-22T10:15:22;17.15;;;11.40;;
21671;SDS011;10997;52.242;8.168;2023-11-22T10:20:41;17.38;;;12.13;;
21671;SDS011;10997;52.242;8.168;2023-11-22T10:25:49;20.80;;;11.10;;
21671;SDS011;10997;52.242;8.168;2023-11-22T10:30:52;15.75;;;10.07;;
21671;SDS011;10997;52.242;8.168;2023-11-22T10:35:53;16.30;;;10.98;;
21671;SDS011;10997;52.242;8.168;2023-11-22T10:40:54;15.80;;;10.50;;
21671;SDS011;10997;52.242;8.168;2023-11-22T10:45:55;13.68;;;9.68;;
21671;SDS011;10997;52.242;8.168;2023-11-22T10:50:57;9.45;;;6.78;;
21671;SDS011;10997;52.242;8.168;2023-11-22T11:01:16;27.20;;;23.52;;
21671;SDS011;10997;52.242;8.168;2023-11-22T11:06:18;12.52;;;8.63;;
21671;SDS011;10997;52.242;8.168;2023-11-22T11:11:23;10.45;;;7.20;;
21671;SDS011;10997;52.242;8.168;2023-11-22T11:16:25;28.10;;;23.73;;
21671;SDS011;10997;52.242;8.168;2023-11-22T11:21:26;22.15;;;17.23;;
21671;SDS011;10997;52.242;8.168;2023-11-22T11:26:27;11.75;;;8.70;;
21671;SDS011;10997;52.242;8.168;2023-11-22T11:31:32;6.00;;;3.97;;
21671;SDS011;10997;52.242;8.168;2023-11-22T11:36:36;28.95;;;24.08;;
21671;SDS011;10997;52.242;8.168;2023-11-22T11:41:38;19.00;;;12.20;;
21671;SDS011;10997;52.242;8.168;2023-11-22T11:46:39;15.85;;;8.93;;
21671;SDS011;10997;52.242;8.168;2023-11-22T11:51:39;10.32;;;6.68;;
21671;SDS011;10997;52.242;8.168;2023-11-22T11:56:40;8.50;;;6.00;;
21671;SDS011;10997;52.242;8.168;2023-11-22T12:01:41;7.32;;;4.53;;
21671;SDS011;10997;52.242;8.168;2023-11-22T12:06:42;10.60;;;6.13;;
21671;SDS011;10997;52.242;8.168;2023-11-22T12:11:42;4.38;;;3.30;;
21671;SDS011;10997;52.242;8.168;2023-11-22T12:16:47;7.22;;;4.72;;
21671;SDS011;10997;52.242;8.168;2023-11-22T12:21:50;9.50;;;8.05;;
21671;SDS011;10997;52.242;8.168;2023-11-22T12:26:51;7.70;;;6.55;;
21671;SDS011;10997;52.242;8.168;2023-11-22T12:31:52;5.00;;;3.30;;
21671;SDS011;10997;52.242;8.168;2023-11-22T12:36:56;4.43;;;2.80;;
21671;SDS011;10997;52.242;8.168;2023-11-22T12:41:57;4.10;;;2.95;;
21671;SDS011;10997;52.242;8.168;2023-11-22T12:46:58;8.82;;;2.50;;
21671;SDS011;10997;52.242;8.168;2023-11-22T12:52:01;7.10;;;2.72;;
21671;SDS011;10997;52.242;8.168;2023-11-22T12:57:02;5.22;;;2.80;;
21671;SDS011;10997;52.242;8.168;2023-11-22T13:02:04;7.95;;;3.00;;
21671;SDS011;10997;52.242;8.168;2023-11-22T13:07:06;4.45;;;2.58;;
21671;SDS011;10997;52.242;8.168;2023-11-22T13:12:07;4.65;;;2.60;;
21671;SDS011;10997;52.242;8.168;2023-11-22T13:17:08;6.90;;;2.90;;
21671;SDS011;10997;52.242;8.168;2023-11-22T13:22:11;11.93;;;3.40;;
21671;SDS011;10997;52.242;8.168;2023-11-22T13:27:12;8.68;;;3.20;;
21671;SDS011;10997;52.242;8.168;2023-11-22T13:32:12;7.05;;;3.90;;
21671;SDS011;10997;52.242;8.168;2023-11-22T13:37:13;5.55;;;3.53;;
21671;SDS011;10997;52.242;8.168;2023-11-22T13:42:16;5.95;;;3.50;;
21671;SDS011;10997;52.242;8.168;2023-11-22T13:47:16;5.53;;;3.55;;
21671;SDS011;10997;52.242;8.168;2023-11-22T13:52:17;6.88;;;4.05;;
21671;SDS011;10997;52.242;8.168;2023-11-22T13:57:18;8.38;;;4.55;;
21671;SDS011;10997;52.242;8.168;2023-11-22T14:02:18;9.23;;;6.00;;
21671;SDS011;10997;52.242;8.168;2023-11-22T14:07:19;13.77;;;7.55;;
21671;SDS011;10997;52.242;8.168;2023-11-22T14:12:19;6.68;;;3.90;;
21671;SDS011;10997;52.242;8.168;2023-11-22T14:17:20;8.40;;;4.13;;
21671;SDS011;10997;52.242;8.168;2023-11-22T14:22:21;12.55;;;5.18;;
21671;SDS011;10997;52.242;8.168;2023-11-22T14:27:22;8.02;;;4.35;;
21671;SDS011;10997;52.242;8.168;2023-11-22T14:32:23;10.95;;;6.60;;
21671;SDS011;10997;52.242;8.168;2023-11-22T14:37:23;21.63;;;16.23;;
21671;SDS011;10997;52.242;8.168;2023-11-22T14:42:24;29.65;;;18.65;;
21671;SDS011;10997;52.242;8.168;2023-11-22T14:47:25;10.35;;;6.10;;
21671;SDS011;10997;52.242;8.168;2023-11-22T14:52:30;7.10;;;5.05;;
21671;SDS011;10997;52.242;8.168;2023-11-22T14:57:30;9.85;;;5.28;;
21671;SDS011;10997;52.242;8.168;2023-11-22T15:02:31;8.75;;;5.85;;
21671;SDS011;10997;52.242;8.168;2023-11-22T15:07:32;13.45;;;7.95;;
21671;SDS011;10997;52.242;8.168;2023-11-22T15:12:33;7.88;;;4.60;;
21671;SDS011;10997;52.242;8.168;2023-11-22T15:17:34;9.80;;;5.45;;
21671;SDS011;10997;52.242;8.168;2023-11-22T15:22:35;10.77;;;4.90;;
21671;SDS011;10997;52.242;8.168;2023-11-22T15:27:36;10.65;;;5.72;;
21671;SDS011;10997;52.242;8.168;2023-11-22T15:32:37;11.88;;;5.20;;
21671;SDS011;10997;52.242;8.168;2023-11-22T15:37:37;28.50;;;12.45;;
21671;SDS011;10997;52.242;8.168;2023-11-22T15:42:38;9.63;;;5.30;;
21671;SDS011;10997;52.242;8.168;2023-11-22T15:47:39;10.93;;;4.72;;
21671;SDS011;10997;52.242;8.168;2023-11-22T15:52:40;17.05;;;7.00;;
21671;SDS011;10997;52.242;8.168;2023-11-22T15:57:41;15.43;;;6.80;;
21671;SDS011;10997;52.242;8.168;2023-11-22T16:02:41;14.02;;;5.53;;
21671;SDS011;10997;52.242;8.168;2023-11-22T16:07:42;9.30;;;5.63;;
21671;SDS011;10997;52.242;8.168;2023-11-22T16:12:42;7.82;;;4.90;;
21671;SDS011;10997;52.242;8.168;2023-11-22T16:17:43;10.05;;;5.95;;
21671;SDS011;10997;52.242;8.168;2023-11-22T16:22:44;10.10;;;6.10;;
21671;SDS011;10997;52.242;8.168;2023-11-22T16:27:44;8.20;;;6.15;;
21671;SDS011;10997;52.242;8.168;2023-11-22T16:32:45;14.07;;;11.05;;
21671;SDS011;10997;52.242;8.168;2023-11-22T16:37:46;8.98;;;6.20;;
21671;SDS011;10997;52.242;8.168;2023-11-22T16:42:46;47.08;;;25.83;;
21671;SDS011;10997;52.242;8.168;2023-11-22T16:47:47;14.73;;;7.25;;
21671;SDS011;10997;52.242;8.168;2023-11-22T16:52:48;10.55;;;6.28;;
21671;SDS011;10997;52.242;8.168;2023-11-22T16:57:50;13.98;;;8.68;;
21671;SDS011;10997;52.242;8.168;2023-11-22T17:02:50;10.27;;;7.40;;
21671;SDS011;10997;52.242;8.168;2023-11-22T17:07:52;11.05;;;6.20;;
21671;SDS011;10997;52.242;8.168;2023-11-22T17:12:53;12.68;;;6.90;;
21671;SDS011;10997;52.242;8.168;2023-11-22T17:17:54;10.32;;;7.03;;
21671;SDS011;10997;52.242;8.168;2023-11-22T17:22:55;31.98;;;16.05;;
21671;SDS011;10997;52.242;8.168;2023-11-22T17:27:55;12.60;;;7.60;;
21671;SDS011;10997;52.242;8.168;2023-11-22T17:32:56;15.30;;;9.18;;
21671;SDS011;10997;52.242;8.168;2023-11-22T17:37:57;9.55;;;6.47;;
21671;SDS011;10997;52.242;8.168;2023-11-22T17:43:00;12.00;;;7.05;;
21671;SDS011;10997;52.242;8.168;2023-11-22T17:48:01;11.90;;;6.95;;
21671;SDS011;10997;52.242;8.168;2023-11-22T17:53:01;9.93;;;6.68;;
21671;SDS011;10997;52.242;8.168;2023-11-22T17:58:02;11.70;;;6.80;;
21671;SDS011;10997;52.242;8.168;2023-11-22T18:03:03;10.02;;;6.68;;
21671;SDS011;10997;52.242;8.168;2023-11-22T18:08:04;16.48;;;9.32;;
21671;SDS011;10997;52.242;8.168;2023-11-22T18:13:04;10.60;;;6.63;;
21671;SDS011;10997;52.242;8.168;2023-11-22T18:18:11;9.80;;;6.95;;
21671;SDS011;10997;52.242;8.168;2023-11-22T18:23:12;10.48;;;6.55;;
21671;SDS011;10997;52.242;8.168;2023-11-22T18:28:12;8.68;;;6.15;;
21671;SDS011;10997;52.242;8.168;2023-11-22T18:33:15;9.98;;;6.30;;
21671;SDS011;10997;52.242;8.168;2023-11-22T18:38:15;9.98;;;6.82;;
21671;SDS011;10997;52.242;8.168;2023-11-22T18:43:20;7.33;;;4.77;;
21671;SDS011;10997;52.242;8.168;2023-11-22T18:48:24;11.63;;;6.68;;
21671;SDS011;10997;52.242;8.168;2023-11-22T18:53:24;10.85;;;6.25;;
21671;SDS011;10997;52.242;8.168;2023-11-22T18:58:25;9.20;;;6.13;;
21671;SDS011;10997;52.242;8.168;2023-11-22T19:03:27;10.23;;;6.13;;
21671;SDS011;10997;52.242;8.168;2023-11-22T19:08:27;10.43;;;6.35;;
21671;SDS011;10997;52.242;8.168;2023-11-22T19:13:28;8.88;;;6.00;;
21671;SDS011;10997;52.242;8.168;2023-11-22T19:18:29;10.25;;;6.45;;
21671;SDS011;10997;52.242;8.168;2023-11-22T19:23:30;10.13;;;6.47;;
21671;SDS011;10997;52.242;8.168;2023-11-22T19:28:31;11.48;;;6.70;;
21671;SDS011;10997;52.242;8.168;2023-11-22T19:33:32;11.07;;;6.75;;
21671;SDS011;10997;52.242;8.168;2023-11-22T19:38:33;9.35;;;6.60;;
21671;SDS011;10997;52.242;8.168;2023-11-22T19:43:34;10.63;;;6.38;;
21671;SDS011;10997;52.242;8.168;2023-11-22T19:48:34;14.05;;;6.65;;
21671;SDS011;10997;52.242;8.168;2023-11-22T19:53:35;15.82;;;7.13;;
21671;SDS011;10997;52.242;8.168;2023-11-22T19:58:36;10.25;;;6.13;;
21671;SDS011;10997;52.242;8.168;2023-11-22T20:03:37;12.40;;;6.72;;
21671;SDS011;10997;52.242;8.168;2023-11-22T20:08:38;11.02;;;6.43;;
21671;SDS011;10997;52.242;8.168;2023-11-22T20:13:38;10.05;;;6.68;;
21671;SDS011;10997;52.242;8.168;2023-11-22T20:18:39;11.02;;;6.70;;
21671;SDS011;10997;52.242;8.168;2023-11-22T20:23:40;12.68;;;7.75;;
21671;SDS011;10997;52.242;8.168;2023-11-22T20:28:41;11.57;;;7.65;;
21671;SDS011;10997;52.242;8.168;2023-11-22T20:33:42;16.65;;;7.55;;
21671;SDS011;10997;52.242;8.168;2023-11-22T20:38:42;13.32;;;8.32;;
21671;SDS011;10997;52.242;8.168;2023-11-22T20:43:49;14.18;;;8.13;;
21671;SDS011;10997;52.242;8.168;2023-11-22T20:48:49;14.32;;;8.60;;
21671;SDS011;10997;52.242;8.168;2023-11-22T20:53:50;15.32;;;9.20;;
21671;SDS011;10997;52.242;8.168;2023-11-22T20:58:50;15.07;;;9.23;;
21671;SDS011;10997;52.242;8.168;2023-11-22T21:03:51;18.85;;;8.52;;
21671;SDS011;10997;52.242;8.168;2023-11-22T21:08:51;17.58;;;10.10;;
21671;SDS011;10997;52.242;8.168;2023-11-22T21:13:53;18.90;;;10.77;;
21671;SDS011;10997;52.242;8.168;2023-11-22T21:18:56;25.25;;;15.55;;
21671;SDS011;10997;52.242;8.168;2023-11-22T21:23:58;18.70;;;10.45;;
21671;SDS011;10997;52.242;8.168;2023-11-22T21:28:59;21.42;;;11.18;;
21671;SDS011;10997;52.242;8.168;2023-11-22T21:34:00;23.65;;;11.82;;
21671;SDS011;10997;52.242;8.168;2023-11-22T21:39:02;20.85;;;12.10;;
21671;SDS011;10997;52.242;8.168;2023-11-22T21:44:11;20.88;;;12.85;;
21671;SDS011;10997;52.242;8.168;2023-11-22T21:49:12;20.45;;;10.35;;
21671;SDS011;10997;52.242;8.168;2023-11-22T21:54:13;24.77;;;13.40;;
21671;SDS011;10997;52.242;8.168;2023-11-22T21:59:14;23.95;;;14.18;;
21671;SDS011;10997;52.242;8.168;2023-11-22T22:04:14;25.70;;;14.63;;
21671;SDS011;10997;52.242;8.168;2023-11-22T22:09:15;28.65;;;15.00;;
21671;SDS011;10997;52.242;8.168;2023-11-22T22:14:19;30.05;;;16.38;;
21671;SDS011;10997;52.242;8.168;2023-11-22T22:19:19;26.92;;;15.68;;
21671;SDS011;10997;52.242;8.168;2023-11-22T22:24:21;31.90;;;16.88;;
21671;SDS011;10997;52.242;8.168;2023-11-22T22:29:21;31.65;;;16.65;;
21671;SDS011;10997;52.242;8.168;2023-11-22T22:34:22;32.80;;;17.42;;
21671;SDS011;10997;52.242;8.168;2023-11-22T22:39:23;35.00;;;16.50;;
21671;SDS011;10997;52.242;8.168;2023-11-22T22:44:23;35.63;;;17.60;;
21671;SDS011;10997;52.242;8.168;2023-11-22T22:49:24;35.67;;;18.48;;
21671;SDS011;10997;52.242;8.168;2023-11-22T22:54:25;29.60;;;17.42;;
21671;SDS011;10997;52.242;8.168;2023-11-22T22:59:27;37.13;;;17.98;;
21671;SDS011;10997;52.242;8.168;2023-11-22T23:04:27;34.20;;;18.15;;
21671;SDS011;10997;52.242;8.168;2023-11-22T23:09:28;35.30;;;18.50;;
21671;SDS011;10997;52.242;8.168;2023-11-22T23:14:28;31.95;;;17.35;;
21671;SDS011;10997;52.242;8.168;2023-11-22T23:19:29;32.65;;;18.65;;
21671;SDS011;10997;52.242;8.168;2023-11-22T23:24:30;37.03;;;19.15;;
21671;SDS011;10997;52.242;8.168;2023-11-22T23:29:30;34.88;;;18.52;;
21671;SDS011;10997;52.242;8.168;2023-11-22T23:34:32;37.17;;;20.10;;
21671;SDS011;10997;52.242;8.168;2023-11-22T23:39:33;38.63;;;21.00;;
21671;SDS011;10997;52.242;8.168;2023-11-22T23:44:34;37.85;;;20.08;;
21671;SDS011;10997;52.242;8.168;2023-11-22T23:49:35;40.67;;;21.48;;
21671;SDS011;10997;52.242;8.168;2023-11-22T23:54:36;40.47;;;21.70;;
21671;SDS011;10997;52.242;8.168;2023-11-22T23:59:37;43.30;;;22.00;;
